This is the latest recevied weather packets stored in our database for station/object PU5BHV. If no packets are shown the sender has not sent any weather packets the latest 10 day(s).
| Time | Temp. | Humidity | Pressure | Rain* | Wind** | Luminosity | Snow |
|---|---|---|---|---|---|---|---|
| 1778001403 | 29.44° C | 64% | 1018.4 hPa | 0 mm | - | 455 W/m² | - |
| 1778001101 | 28.89° C | 66% | 1018.4 hPa | 0 mm | - | 454 W/m² | - |
| 1778000798 | 28.33° C | 66% | 1018.3 hPa | 0 mm | - | 397 W/m² | - |
| 1778000494 | 28.33° C | 67% | 1018.7 hPa | 0 mm | - | 421 W/m² | - |
| 1778000189 | 28.89° C | 67% | 1018.6 hPa | 0 mm | - | 474 W/m² | - |
| 1777999886 | 28.89° C | 67% | 1018.5 hPa | 0 mm | - | 498 W/m² | - |
| 1777999581 | 28.89° C | 66% | 1018.7 hPa | 0 mm | - | 478 W/m² | - |
| 1777999279 | 29.44° C | 65% | 1018.8 hPa | 0 mm | - | 514 W/m² | - |
| 1777998977 | 28.89° C | 66% | 1019.2 hPa | 0 mm | - | 537 W/m² | - |
| 1777998674 | 28.89° C | 65% | 1018.8 hPa | 0 mm | - | 535 W/m² | - |
| 1777998372 | 28.89° C | 64% | 1019.1 hPa | 0 mm | - | 507 W/m² | - |
| 1777998069 | 28.33° C | 67% | 1019.1 hPa | 0 mm | - | 516 W/m² | - |
| 1777997766 | 27.78° C | 67% | 1019.1 hPa | 0 mm | - | 551 W/m² | - |
| 1777997463 | 27.78° C | 68% | 1019.5 hPa | 0 mm | - | 585 W/m² | - |
| 1777997161 | 27.78° C | 68% | 1019.7 hPa | 0 mm | - | 555 W/m² | - |
| 1777996858 | 27.78° C | 68% | 1019.5 hPa | 0 mm | - | 567 W/m² | - |
| 1777996554 | 27.22° C | 71% | 1019.7 hPa | 0 mm | - | 384 W/m² | - |
| 1777996251 | 27.78° C | 69% | 1019.8 hPa | 0 mm | - | 239 W/m² | - |
| 1777995947 | 27.78° C | 70% | 1019.7 hPa | 0 mm | - | 593 W/m² | - |
| 1777995643 | 27.78° C | 67% | 1020 hPa | 0 mm | - | 702 W/m² | - |
| 1777995341 | 27.78° C | 70% | 1020 hPa | 0 mm | - | 668 W/m² | - |
| 1777995038 | 27.22° C | 71% | 1019.9 hPa | 0 mm | - | 614 W/m² | - |
| 1777994735 | 26.67° C | 71% | 1020.2 hPa | 0 mm | - | 581 W/m² | - |
| 1777994431 | 27.22° C | 68% | 1020 hPa | 0 mm | - | 580 W/m² | - |
| 1777994131 | 27.22° C | 69% | 1020.2 hPa | 0 mm | - | 624 W/m² | - |
* Rain latest hour (hover to see other rain measurements)
** Current wind speed in m/s (hover to see current wind gust speed)